Time;durP1;ratioP1;P1;durP2;ratioP2;P2;SDS_P1;SDS_P2;PMS_P1;PMS_P2;Temp;Humidity;BMP_temperature;BMP_pressure;BME280_temperature;BME280_humidity;BME280_pressure;Samples;Min_cycle;Max_cycle;Signal;HPM_P1;HPM_P2
2022/07/05 00:02:09;;;;;;;4.68;0.82;;;21.20;71.10;;;;;;5033535;28;20021;-87
2022/07/05 00:04:34;;;;;;;3.42;0.73;;;21.10;71.20;;;;;;5017525;28;20030;-88
2022/07/05 00:07:18;;;;;;;3.25;0.70;;;21.00;71.60;;;;;;5032993;28;20040;-88
2022/07/05 00:09:48;;;;;;;2.13;0.60;;;21.00;71.60;;;;;;5032684;28;20026;-87
2022/07/05 00:12:14;;;;;;;1.00;0.80;;;21.00;71.90;;;;;;5032550;28;20048;-88
2022/07/05 00:14:44;;;;;;;2.22;0.70;;;20.90;72.00;;;;;;5032776;28;20513;-88
2022/07/05 00:17:10;;;;;;;2.88;0.70;;;20.80;72.10;;;;;;5033477;28;20052;-88
2022/07/05 00:19:36;;;;;;;5.30;0.80;;;20.80;72.80;;;;;;5033870;28;20030;-87
2022/07/05 00:22:02;;;;;;;2.50;0.85;;;20.80;72.60;;;;;;5020697;28;20502;-88
2022/07/05 00:24:28;;;;;;;2.72;0.90;;;20.70;72.70;;;;;;5030043;28;20080;-88
2022/07/05 00:26:53;;;;;;;1.73;0.50;;;20.70;72.70;;;;;;5031593;28;20454;-88
2022/07/05 00:29:19;;;;;;;2.03;0.60;;;20.70;72.00;;;;;;5032510;28;20533;-88
2022/07/05 00:31:45;;;;;;;1.02;0.65;;;20.70;72.20;;;;;;5032921;28;20120;-87
2022/07/05 00:34:10;;;;;;;2.85;0.73;;;20.60;71.90;;;;;;5018555;28;20146;-87
2022/07/05 00:36:36;;;;;;;0.60;0.60;;;20.60;72.60;;;;;;5012836;28;20038;-87
2022/07/05 00:39:02;;;;;;;1.10;0.77;;;20.50;72.70;;;;;;5016408;28;20050;-88
2022/07/05 00:41:28;;;;;;;2.20;0.70;;;20.50;73.00;;;;;;5016702;28;20026;-88
2022/07/05 00:43:54;;;;;;;3.20;0.70;;;20.50;72.90;;;;;;5016006;28;20030;-89
2022/07/05 00:46:20;;;;;;;1.77;0.70;;;20.40;72.30;;;;;;5030520;28;20095;-87
2022/07/05 00:48:46;;;;;;;2.70;0.70;;;20.40;72.20;;;;;;5036119;28;20029;-88
2022/07/05 00:51:11;;;;;;;1.50;0.75;;;20.40;72.80;;;;;;5035826;28;20305;-88
2022/07/05 00:53:37;;;;;;;4.05;0.73;;;20.40;73.10;;;;;;5036260;28;20080;-88
2022/07/05 00:56:04;;;;;;;4.75;1.00;;;20.40;73.40;;;;;;5023097;28;20033;-87
2022/07/05 00:58:31;;;;;;;0.98;0.60;;;20.40;73.80;;;;;;5033700;28;20084;-88
2022/07/05 01:00:57;;;;;;;6.90;0.80;;;20.30;74.20;;;;;;5031875;28;20018;-88
2022/07/05 01:03:23;;;;;;;1.40;0.65;;;20.30;75.20;;;;;;5024431;28;20026;-88
2022/07/05 01:05:49;;;;;;;2.30;0.82;;;20.40;75.40;;;;;;5036544;28;20025;-90
2022/07/05 01:08:15;;;;;;;1.20;0.57;;;20.20;75.60;;;;;;5021364;28;20072;-88
2022/07/05 01:10:41;;;;;;;2.88;0.80;;;20.20;75.70;;;;;;5032307;28;20107;-88
2022/07/05 01:13:08;;;;;;;1.48;0.70;;;20.10;76.20;;;;;;5015618;28;20108;-88
2022/07/05 01:15:34;;;;;;;1.00;0.70;;;20.10;76.90;;;;;;5024790;28;20053;-88
2022/07/05 01:18:00;;;;;;;2.95;0.63;;;20.10;77.30;;;;;;5022806;28;20061;-88
2022/07/05 01:20:26;;;;;;;1.45;0.68;;;19.90;78.20;;;;;;5031649;28;20036;-88
2022/07/05 01:22:56;;;;;;;1.40;0.68;;;19.90;78.30;;;;;;5036334;28;20053;-89
2022/07/05 01:25:24;;;;;;;4.38;0.90;;;19.90;78.50;;;;;;5035476;28;20032;-87
2022/07/05 01:27:51;;;;;;;4.85;0.65;;;19.80;78.60;;;;;;5023693;28;20040;-90
2022/07/05 01:30:17;;;;;;;1.58;0.75;;;19.70;79.80;;;;;;5016057;28;20029;-88
2022/07/05 01:32:44;;;;;;;0.85;0.80;;;19.50;80.50;;;;;;5033584;28;20549;-88
2022/07/05 01:35:10;;;;;;;2.08;0.68;;;19.50;80.80;;;;;;5029284;28;20165;-87
2022/07/05 01:37:37;;;;;;;1.02;0.50;;;19.50;80.90;;;;;;5016351;28;20034;-88
2022/07/05 01:40:04;;;;;;;3.65;0.77;;;19.50;81.20;;;;;;5014946;28;20026;-88
2022/07/05 01:42:29;;;;;;;2.25;0.82;;;19.40;81.60;;;;;;5031611;28;20524;-88
2022/07/05 01:44:55;;;;;;;2.50;1.10;;;19.40;82.00;;;;;;5034719;28;20030;-88
2022/07/05 01:47:21;;;;;;;0.75;0.70;;;19.40;82.20;;;;;;5034067;28;20057;-88
2022/07/05 01:49:49;;;;;;;2.28;0.80;;;19.30;82.80;;;;;;5024906;28;20051;-88
2022/07/05 01:52:19;;;;;;;1.73;0.93;;;19.10;83.20;;;;;;5016799;28;20041;-87
2022/07/05 01:54:45;;;;;;;4.72;0.90;;;19.10;84.00;;;;;;5016355;28;20106;-86
2022/07/05 01:57:10;;;;;;;2.15;0.70;;;19.00;84.60;;;;;;5019856;28;20466;-86
2022/07/05 01:59:37;;;;;;;2.05;0.93;;;18.90;85.30;;;;;;5025200;28;20028;-86
2022/07/05 02:02:03;;;;;;;2.35;0.93;;;18.80;86.00;;;;;;5026464;28;20032;-86
2022/07/05 02:04:29;;;;;;;1.35;0.90;;;18.80;86.70;;;;;;5035642;28;20490;-86
2022/07/05 02:06:56;;;;;;;2.25;0.80;;;18.80;87.10;;;;;;5033692;28;20037;-87
2022/07/05 02:09:22;;;;;;;4.57;1.10;;;18.80;87.40;;;;;;5034866;28;20030;-86
2022/07/05 02:11:47;;;;;;;2.78;0.90;;;18.70;87.90;;;;;;5023797;28;20068;-86
2022/07/05 02:14:13;;;;;;;2.60;1.17;;;18.80;88.50;;;;;;5015431;28;20030;-86
2022/07/05 02:16:39;;;;;;;2.53;0.90;;;18.80;88.60;;;;;;5016231;28;20065;-86
2022/07/05 02:19:05;;;;;;;3.38;1.05;;;18.90;88.80;;;;;;5029645;28;20026;-86
2022/07/05 02:21:30;;;;;;;5.55;1.00;;;18.80;89.10;;;;;;5014715;28;20034;-86
2022/07/05 02:23:56;;;;;;;1.10;1.00;;;18.90;88.90;;;;;;5014134;28;20032;-87
2022/07/05 02:26:21;;;;;;;3.00;1.23;;;18.80;89.00;;;;;;5014062;28;20156;-86
2022/07/05 02:28:48;;;;;;;1.98;0.85;;;18.80;89.20;;;;;;5033285;28;20025;-86
2022/07/05 02:31:16;;;;;;;0.93;0.80;;;18.80;89.80;;;;;;5034763;28;20029;-86
2022/07/05 02:33:41;;;;;;;3.08;1.00;;;18.80;90.00;;;;;;5034524;28;20140;-87
2022/07/05 02:36:11;;;;;;;1.20;1.00;;;18.80;90.00;;;;;;5020254;28;20478;-86
2022/07/05 02:38:37;;;;;;;4.07;1.00;;;18.60;90.60;;;;;;5031956;28;20586;-87
2022/07/05 02:41:07;;;;;;;2.78;1.02;;;18.50;91.20;;;;;;5033911;28;20116;-87
2022/07/05 02:43:34;;;;;;;2.83;1.00;;;18.40;91.80;;;;;;5035154;28;20528;-87
2022/07/05 02:46:00;;;;;;;1.30;1.02;;;18.30;91.90;;;;;;5033325;28;20049;-87
2022/07/05 02:48:26;;;;;;;2.33;1.00;;;18.30;91.90;;;;;;5033617;28;20029;-87
2022/07/05 02:50:52;;;;;;;2.30;1.00;;;18.30;91.80;;;;;;5035010;28;20425;-88
2022/07/05 02:53:17;;;;;;;3.70;1.08;;;18.20;92.20;;;;;;5034021;28;20026;-86
2022/07/05 02:55:43;;;;;;;1.23;1.00;;;18.10;92.60;;;;;;5034836;28;20079;-86
2022/07/05 02:58:09;;;;;;;2.20;0.90;;;18.10;92.70;;;;;;5033863;28;20049;-86
2022/07/05 03:00:34;;;;;;;2.60;1.10;;;18.10;92.70;;;;;;5033825;28;20040;-88
2022/07/05 03:03:00;;;;;;;1.60;1.15;;;18.10;92.60;;;;;;5033447;28;20481;-88
2022/07/05 03:05:25;;;;;;;4.30;1.25;;;18.10;92.70;;;;;;5025947;28;20068;-87
2022/07/05 03:07:51;;;;;;;1.60;0.98;;;18.10;92.80;;;;;;5013481;28;20041;-89
2022/07/05 03:10:17;;;;;;;3.60;1.27;;;18.00;92.70;;;;;;5013782;28;20129;-87
2022/07/05 03:12:42;;;;;;;1.17;0.98;;;18.00;92.80;;;;;;5014115;28;20368;-87
2022/07/05 03:15:08;;;;;;;2.25;1.20;;;18.00;93.10;;;;;;5012857;28;20102;-87
2022/07/05 03:17:34;;;;;;;4.13;1.55;;;17.90;93.30;;;;;;5013670;28;20490;-86
2022/07/05 03:20:00;;;;;;;2.70;1.20;;;17.70;93.60;;;;;;5012933;28;20026;-86
2022/07/05 03:22:26;;;;;;;2.42;1.23;;;17.70;93.90;;;;;;5026794;28;20374;-86
2022/07/05 03:24:51;;;;;;;2.47;1.20;;;17.70;93.60;;;;;;5016287;28;20386;-89
2022/07/05 03:27:17;;;;;;;1.58;1.08;;;17.80;93.20;;;;;;5025674;28;20112;-87
2022/07/05 03:29:42;;;;;;;1.40;1.30;;;17.70;93.00;;;;;;5031371;28;20116;-86
2022/07/05 03:32:08;;;;;;;2.47;1.13;;;17.60;93.40;;;;;;5014669;28;20790;-86
2022/07/05 03:34:34;;;;;;;1.38;0.98;;;17.60;93.70;;;;;;5027154;28;20388;-87
2022/07/05 03:36:59;;;;;;;3.35;1.25;;;17.60;93.50;;;;;;5031506;28;20482;-87
2022/07/05 03:39:25;;;;;;;1.45;1.13;;;17.60;93.40;;;;;;5024499;28;20383;-87
2022/07/05 03:41:51;;;;;;;1.83;1.10;;;17.50;93.60;;;;;;5024129;28;20143;-90
2022/07/05 03:44:16;;;;;;;3.72;1.20;;;17.50;93.70;;;;;;5025707;28;20052;-88
2022/07/05 03:46:42;;;;;;;2.38;1.45;;;17.40;93.90;;;;;;5030982;28;20409;-87
2022/07/05 03:49:07;;;;;;;1.95;1.25;;;17.40;94.00;;;;;;5013808;28;20030;-88
2022/07/05 03:51:33;;;;;;;5.22;1.20;;;17.50;94.00;;;;;;5013219;28;20032;-87
2022/07/05 03:53:59;;;;;;;2.50;1.25;;;17.40;94.00;;;;;;5012837;28;20133;-87
2022/07/05 03:56:24;;;;;;;2.75;1.00;;;17.30;94.10;;;;;;5014292;28;20040;-87
2022/07/05 03:58:50;;;;;;;1.95;1.00;;;17.30;94.20;;;;;;5013925;28;20022;-89
2022/07/05 04:01:16;;;;;;;2.50;1.10;;;17.30;94.20;;;;;;5014105;28;20026;-87
2022/07/05 04:03:42;;;;;;;2.50;1.20;;;17.10;94.40;;;;;;5012961;28;20359;-87
2022/07/05 04:06:11;;;;;;;1.65;1.33;;;17.00;94.60;;;;;;5025143;28;20032;-87
2022/07/05 04:08:37;;;;;;;1.83;1.10;;;17.00;94.50;;;;;;5014803;28;20026;-87
2022/07/05 04:11:04;;;;;;;2.85;1.00;;;17.10;94.30;;;;;;5026903;28;20463;-87
2022/07/05 04:13:29;;;;;;;2.17;1.10;;;17.20;94.00;;;;;;5022612;28;20021;-87
2022/07/05 04:15:55;;;;;;;1.35;1.00;;;17.20;94.20;;;;;;5035775;28;20030;-87
2022/07/05 04:18:22;;;;;;;2.42;0.98;;;17.30;94.30;;;;;;5036713;28;20120;-87
2022/07/05 04:20:48;;;;;;;1.77;1.08;;;17.20;94.50;;;;;;5017809;28;20041;-87
2022/07/05 04:23:14;;;;;;;4.68;1.10;;;17.30;94.60;;;;;;5016588;28;20038;-87
2022/07/05 04:25:39;;;;;;;3.78;1.00;;;17.20;94.90;;;;;;5017997;28;20033;-86
2022/07/05 04:28:05;;;;;;;2.60;1.33;;;17.30;95.30;;;;;;5016340;28;20038;-85
2022/07/05 04:30:30;;;;;;;1.88;1.10;;;17.20;95.50;;;;;;5016849;28;20463;-88
2022/07/05 04:32:57;;;;;;;4.75;1.00;;;17.30;95.80;;;;;;5037111;28;20374;-87
2022/07/05 04:35:22;;;;;;;1.60;1.10;;;17.30;96.00;;;;;;5036609;28;20028;-87
2022/07/05 04:37:48;;;;;;;1.33;1.10;;;17.40;96.40;;;;;;5037521;28;20105;-86
2022/07/05 04:40:14;;;;;;;4.38;1.45;;;17.40;96.50;;;;;;5036148;28;20080;-87
2022/07/05 04:42:41;;;;;;;1.83;0.90;;;17.40;96.30;;;;;;5036375;28;20478;-87
2022/07/05 04:45:07;;;;;;;2.10;1.20;;;17.50;96.40;;;;;;5036979;28;20045;-87
2022/07/05 04:47:36;;;;;;;1.90;1.05;;;17.50;96.40;;;;;;5035474;28;20127;-87
2022/07/05 04:50:04;;;;;;;3.60;1.00;;;17.60;96.20;;;;;;5035481;28;20053;-87
2022/07/05 04:52:30;;;;;;;2.60;1.20;;;17.70;96.00;;;;;;5035635;28;20030;-87
2022/07/05 04:54:56;;;;;;;4.43;1.35;;;17.70;95.90;;;;;;5036598;28;20092;-87
2022/07/05 04:57:21;;;;;;;3.65;1.30;;;17.70;95.50;;;;;;5036136;28;20036;-88
2022/07/05 04:59:47;;;;;;;2.85;1.30;;;17.70;95.70;;;;;;5036707;28;20029;-87
2022/07/05 05:02:13;;;;;;;3.25;1.08;;;17.80;95.60;;;;;;5035547;28;20745;-87
2022/07/05 05:04:38;;;;;;;3.28;1.27;;;17.90;95.30;;;;;;5036127;28;20029;-87
2022/07/05 05:07:04;;;;;;;5.43;1.38;;;18.00;94.60;;;;;;5037024;28;20044;-87
2022/07/05 05:09:30;;;;;;;7.53;1.60;;;18.10;93.80;;;;;;5035378;28;20072;-87
2022/07/05 05:11:55;;;;;;;9.32;1.70;;;18.20;93.60;;;;;;5035375;28;20022;-88
2022/07/05 05:14:21;;;;;;;9.65;2.58;;;18.30;94.00;;;;;;5035892;28;20025;-87
2022/07/05 05:16:47;;;;;;;5.68;2.10;;;18.40;94.40;;;;;;5035978;28;20520;-88
2022/07/05 05:19:12;;;;;;;8.75;3.00;;;18.40;94.60;;;;;;5035238;28;20048;-87
2022/07/05 05:21:38;;;;;;;7.78;3.75;;;18.50;94.90;;;;;;5038290;28;20075;-87
2022/07/05 05:24:04;;;;;;;4.95;2.90;;;18.50;94.90;;;;;;5034783;28;20034;-87
2022/07/05 05:26:30;;;;;;;5.80;2.33;;;18.60;94.80;;;;;;5042153;28;20029;-88
2022/07/05 05:28:55;;;;;;;7.53;2.92;;;18.60;94.80;;;;;;5035268;28;20116;-87
2022/07/05 05:31:21;;;;;;;9.82;3.00;;;18.60;94.50;;;;;;5035459;28;20515;-87
2022/07/05 05:33:47;;;;;;;6.38;2.28;;;18.70;94.40;;;;;;5036484;28;20025;-87
2022/07/05 05:36:13;;;;;;;5.63;2.00;;;18.70;94.20;;;;;;5036016;28;20321;-88
2022/07/05 05:38:39;;;;;;;3.75;1.88;;;18.70;94.10;;;;;;5035395;28;20044;-87
2022/07/05 05:41:04;;;;;;;10.40;3.10;;;18.80;94.10;;;;;;5035013;28;20111;-87
2022/07/05 05:43:30;;;;;;;8.45;3.45;;;18.80;94.20;;;;;;5035328;28;20030;-87
2022/07/05 05:45:59;;;;;;;4.95;2.10;;;18.80;93.70;;;;;;5034781;28;20041;-87
2022/07/05 05:48:25;;;;;;;8.65;3.55;;;18.90;94.10;;;;;;5034334;28;20033;-88
2022/07/05 05:50:51;;;;;;;4.65;1.80;;;18.90;94.40;;;;;;5034336;28;20437;-89
2022/07/05 05:53:17;;;;;;;4.63;1.70;;;18.90;94.00;;;;;;5034796;28;20030;-87
2022/07/05 05:55:43;;;;;;;4.82;1.45;;;19.00;93.90;;;;;;5023282;28;20053;-87
2022/07/05 05:58:14;;;;;;;5.60;1.80;;;19.10;94.00;;;;;;5027040;28;20061;-87
2022/07/05 06:00:40;;;;;;;3.58;1.33;;;19.10;94.00;;;;;;5017214;28;20026;-87
2022/07/05 06:03:06;;;;;;;5.95;1.48;;;19.10;94.10;;;;;;5035545;28;20061;-87
2022/07/05 06:05:32;;;;;;;4.57;1.40;;;19.20;94.00;;;;;;5036062;28;20450;-87
2022/07/05 06:07:57;;;;;;;4.82;1.48;;;19.20;94.10;;;;;;5035364;28;20105;-87
2022/07/05 06:10:24;;;;;;;2.90;1.30;;;19.20;94.60;;;;;;5036000;28;20100;-87
2022/07/05 06:12:51;;;;;;;2.47;1.60;;;19.30;94.50;;;;;;5035300;28;20045;-91
2022/07/05 06:15:17;;;;;;;2.03;1.25;;;19.40;94.60;;;;;;5039548;28;20025;-86
2022/07/05 06:17:43;;;;;;;3.60;1.55;;;19.40;94.50;;;;;;5027006;28;20036;-87
2022/07/05 06:20:11;;;;;;;3.00;0.90;;;19.40;93.70;;;;;;5015341;28;20032;-87
2022/07/05 06:22:37;;;;;;;2.92;1.35;;;19.40;92.50;;;;;;5033131;28;20470;-87
2022/07/05 06:25:04;;;;;;;4.05;1.33;;;19.40;91.70;;;;;;5034677;28;20033;-87
2022/07/05 06:27:30;;;;;;;2.08;0.88;;;19.50;90.60;;;;;;5034542;28;20475;-88
2022/07/05 06:29:56;;;;;;;2.47;1.27;;;19.60;89.90;;;;;;5023319;28;20036;-87
2022/07/05 06:32:22;;;;;;;2.95;1.10;;;19.60;90.40;;;;;;5015937;28;20403;-87
2022/07/05 06:34:47;;;;;;;3.95;1.40;;;19.60;90.50;;;;;;5015682;28;20026;-87
2022/07/05 06:37:13;;;;;;;2.20;1.20;;;19.60;90.40;;;;;;5014652;28;20034;-86
2022/07/05 06:39:39;;;;;;;2.47;1.20;;;19.70;90.00;;;;;;5014661;28;20084;-86
2022/07/05 06:42:05;;;;;;;3.08;1.10;;;19.70;90.00;;;;;;5013731;28;20034;-85
2022/07/05 06:44:30;;;;;;;2.03;1.20;;;19.70;90.00;;;;;;5023885;28;20356;-87
2022/07/05 06:46:56;;;;;;;5.22;1.20;;;19.70;90.20;;;;;;5013485;28;20103;-87
2022/07/05 06:49:22;;;;;;;2.33;1.00;;;19.80;90.10;;;;;;5014044;28;20455;-87
2022/07/05 06:51:47;;;;;;;3.42;1.13;;;19.80;89.40;;;;;;5014150;28;20549;-87
2022/07/05 06:54:13;;;;;;;2.72;1.35;;;19.90;89.10;;;;;;5016265;28;20077;-86
2022/07/05 06:56:39;;;;;;;4.55;1.00;;;19.90;89.20;;;;;;5014122;28;20026;-87
2022/07/05 06:59:04;;;;;;;3.95;1.20;;;19.90;89.20;;;;;;5013527;28;20386;-87
2022/07/05 07:01:30;;;;;;;2.72;0.90;;;19.90;89.00;;;;;;5022870;28;20026;-87
2022/07/05 07:03:55;;;;;;;4.32;1.10;;;19.90;88.90;;;;;;5031105;28;20037;-88
2022/07/05 07:06:21;;;;;;;3.47;1.10;;;20.00;88.50;;;;;;5021507;28;20061;-87
2022/07/05 07:11:31;;;;;;;2.03;0.90;;;20.10;86.30;;;;;;5022966;28;20033;-86
2022/07/05 07:13:57;;;;;;;3.83;0.98;;;20.20;85.50;;;;;;5016997;28;20018;-87
2022/07/05 07:16:23;;;;;;;3.00;0.82;;;20.20;85.70;;;;;;5030421;28;20378;-87
2022/07/05 07:18:49;;;;;;;2.95;1.13;;;20.20;85.10;;;;;;5027061;28;20501;-87
2022/07/05 07:21:14;;;;;;;2.80;0.88;;;20.20;84.90;;;;;;5031676;28;20450;-87
2022/07/05 07:23:40;;;;;;;3.75;0.90;;;20.30;84.90;;;;;;5014238;28;20034;-87
2022/07/05 07:26:05;;;;;;;3.90;0.80;;;20.30;84.60;;;;;;5030338;28;20037;-88
2022/07/05 07:28:31;;;;;;;1.30;0.60;;;20.40;84.30;;;;;;5017109;28;20455;-88
2022/07/05 07:30:57;;;;;;;1.70;0.60;;;20.40;83.60;;;;;;5027087;28;20033;-87
2022/07/05 07:33:22;;;;;;;1.70;0.70;;;20.50;83.40;;;;;;5023243;28;20068;-86
2022/07/05 07:35:48;;;;;;;3.22;0.68;;;20.50;82.60;;;;;;5030579;28;20504;-88
2022/07/05 07:38:13;;;;;;;2.30;0.90;;;20.50;82.60;;;;;;5013942;28;20045;-89
2022/07/05 07:40:39;;;;;;;1.38;1.00;;;20.40;83.10;;;;;;5028846;28;20386;-87
2022/07/05 07:43:05;;;;;;;3.58;0.90;;;20.50;83.00;;;;;;5017328;28;20032;-88
2022/07/05 07:45:31;;;;;;;1.52;0.77;;;20.50;82.70;;;;;;5023996;28;20022;-87
2022/07/05 07:47:57;;;;;;;3.42;0.88;;;20.50;81.80;;;;;;5011985;28;20096;-87
2022/07/05 07:50:23;;;;;;;2.97;0.82;;;20.50;82.10;;;;;;5020833;28;20021;-87
2022/07/05 07:52:48;;;;;;;3.95;1.08;;;20.50;82.60;;;;;;5029738;28;20026;-86
2022/07/05 07:55:15;;;;;;;3.35;1.13;;;20.60;82.70;;;;;;5025464;28;20026;-86
2022/07/05 07:57:41;;;;;;;1.00;0.80;;;20.60;83.00;;;;;;5013208;28;20137;-86
2022/07/05 08:00:07;;;;;;;1.88;0.82;;;20.60;82.70;;;;;;5025782;28;20486;-86
2022/07/05 08:02:32;;;;;;;3.25;0.82;;;20.70;83.00;;;;;;5017572;28;20033;-86
2022/07/05 08:04:58;;;;;;;1.25;0.95;;;20.80;82.20;;;;;;5032729;28;20413;-87
2022/07/05 08:07:24;;;;;;;3.15;0.47;;;20.80;81.70;;;;;;5032930;28;20030;-86
2022/07/05 08:09:50;;;;;;;1.50;0.80;;;20.90;81.70;;;;;;5032763;28;20029;-88
2022/07/05 08:12:16;;;;;;;1.13;0.70;;;21.00;82.40;;;;;;5032645;28;20032;-86
2022/07/05 08:14:41;;;;;;;3.42;0.70;;;21.10;81.90;;;;;;5016118;28;20373;-89
2022/07/05 08:17:08;;;;;;;0.82;0.70;;;21.10;81.10;;;;;;5032449;28;20121;-88
2022/07/05 08:22:19;;;;;;;1.27;0.63;;;21.10;80.20;;;;;;5028871;28;20060;-89
2022/07/05 08:24:45;;;;;;;1.65;0.68;;;21.10;79.90;;;;;;5029636;28;20026;-88
2022/07/05 08:27:12;;;;;;;2.83;0.70;;;21.20;79.90;;;;;;5018234;28;20029;-88
2022/07/05 08:29:38;;;;;;;1.90;0.85;;;21.20;80.90;;;;;;5029709;28;20049;-89
2022/07/05 08:32:04;;;;;;;1.30;0.70;;;21.20;80.30;;;;;;5033483;28;20025;-88
2022/07/05 08:34:30;;;;;;;1.73;0.80;;;21.30;79.60;;;;;;5033434;28;20505;-90
2022/07/05 08:36:55;;;;;;;1.33;0.77;;;21.40;79.40;;;;;;5033246;28;20064;-90
2022/07/05 08:39:21;;;;;;;2.47;0.73;;;21.40;79.80;;;;;;5033678;28;20056;-89
2022/07/05 08:41:51;;;;;;;2.15;0.60;;;21.40;79.50;;;;;;5033268;28;20064;-88
2022/07/05 08:44:21;;;;;;;3.08;1.02;;;21.50;79.70;;;;;;5025661;28;20036;-88
2022/07/05 08:46:50;;;;;;;4.27;1.00;;;21.50;79.60;;;;;;5029047;28;20072;-89
2022/07/05 08:49:24;;;;;;;1.35;0.70;;;21.60;80.30;;;;;;5011466;28;20255;-88
2022/07/05 08:51:49;;;;;;;3.50;0.88;;;21.60;79.40;;;;;;5013591;28;20422;-88
2022/07/05 08:54:16;;;;;;;2.78;0.75;;;21.60;79.40;;;;;;5012473;28;20121;-88
2022/07/05 08:56:43;;;;;;;1.98;0.88;;;21.70;79.10;;;;;;5012701;28;20132;-88
2022/07/05 08:59:09;;;;;;;3.75;0.80;;;21.80;78.70;;;;;;5014029;28;20022;-89
2022/07/05 09:01:36;;;;;;;3.13;0.80;;;21.80;78.00;;;;;;5016465;28;20060;-89
2022/07/05 09:04:05;;;;;;;1.83;0.68;;;21.80;78.20;;;;;;5017385;28;20030;-89
2022/07/05 09:06:34;;;;;;;1.17;0.77;;;22.00;78.80;;;;;;5025335;28;20390;-90
2022/07/05 09:09:00;;;;;;;5.90;1.00;;;22.00;78.90;;;;;;5015821;28;20048;-88
2022/07/05 09:11:48;;;;;;;3.08;0.70;;;22.00;78.90;;;;;;5016475;28;20038;-88
2022/07/05 09:14:23;;;;;;;2.10;0.88;;;22.00;78.30;;;;;;5017744;28;20026;-88
2022/07/05 09:16:49;;;;;;;1.08;0.75;;;22.10;78.50;;;;;;5017524;28;20463;-88
2022/07/05 09:19:14;;;;;;;4.57;0.75;;;22.10;78.80;;;;;;5024195;28;20382;-88
2022/07/05 09:21:41;;;;;;;4.10;0.80;;;22.10;76.90;;;;;;5035630;28;20120;-88
2022/07/05 09:24:09;;;;;;;0.68;0.60;;;22.20;76.60;;;;;;5035666;28;20529;-88
2022/07/05 09:26:36;;;;;;;1.10;0.57;;;22.20;77.00;;;;;;5017575;28;20076;-89
2022/07/05 09:29:14;;;;;;;2.33;0.70;;;22.30;76.60;;;;;;5019818;28;20459;-89
2022/07/05 09:31:42;;;;;;;2.53;0.63;;;22.30;75.50;;;;;;5026010;28;20063;-88
2022/07/05 09:34:11;;;;;;;1.35;0.60;;;22.40;75.90;;;;;;5036871;28;20099;-88
2022/07/05 09:37:01;;;;;;;1.50;0.80;;;22.40;74.20;;;;;;5033386;28;20104;-88
2022/07/05 09:39:30;;;;;;;5.85;0.88;;;22.50;74.20;;;;;;5021063;28;20018;-88
2022/07/05 09:42:20;;;;;;;2.17;0.60;;;22.50;74.50;;;;;;5015129;28;20521;-89
2022/07/05 09:44:48;;;;;;;2.55;1.20;;;22.60;73.70;;;;;;5015677;28;20037;-89
2022/07/05 09:47:18;;;;;;;0.45;0.45;;;22.60;73.30;;;;;;5015091;28;20081;-88
2022/07/05 09:49:46;;;;;;;4.78;0.90;;;22.70;72.20;;;;;;5016276;28;20026;-88
2022/07/05 09:52:35;;;;;;;1.83;0.57;;;22.80;70.90;;;;;;5015087;28;20026;-89
2022/07/05 09:55:21;;;;;;;2.47;0.55;;;22.80;70.50;;;;;;5015074;28;20034;-87
2022/07/05 09:57:47;;;;;;;2.67;0.80;;;22.90;70.80;;;;;;5034777;28;20042;-86
2022/07/05 10:00:14;;;;;;;1.63;0.70;;;22.90;71.00;;;;;;5034849;28;20022;-87
2022/07/05 10:02:42;;;;;;;5.13;0.70;;;23.00;71.90;;;;;;5034906;28;20026;-87
2022/07/05 10:05:12;;;;;;;2.22;0.70;;;23.00;71.00;;;;;;5035701;28;20140;-88
2022/07/05 10:07:47;;;;;;;3.22;1.27;;;23.10;69.70;;;;;;5029292;28;20035;-88
2022/07/05 10:10:18;;;;;;;1.13;0.47;;;23.20;69.30;;;;;;5016605;28;20030;-88
2022/07/05 10:12:45;;;;;;;1.55;0.70;;;23.30;70.50;;;;;;5030574;28;20025;-88
2022/07/05 10:15:13;;;;;;;1.70;0.65;;;23.30;69.50;;;;;;5028847;28;20026;-88
2022/07/05 10:17:45;;;;;;;1.23;0.82;;;23.30;69.40;;;;;;5030290;28;20041;-87
2022/07/05 10:20:31;;;;;;;1.15;0.70;;;23.30;69.70;;;;;;5029969;28;20120;-88
2022/07/05 10:22:58;;;;;;;3.63;0.65;;;23.40;69.20;;;;;;5016710;28;20556;-88
2022/07/05 10:25:25;;;;;;;0.75;0.57;;;23.50;69.10;;;;;;5018984;28;20021;-88
2022/07/05 10:27:53;;;;;;;2.70;0.60;;;23.40;68.70;;;;;;5030266;28;20033;-91
2022/07/05 10:30:20;;;;;;;2.78;0.65;;;23.50;68.70;;;;;;5022309;28;20061;-87
2022/07/05 10:32:47;;;;;;;1.55;0.40;;;23.50;68.50;;;;;;5019864;28;20124;-88
2022/07/05 10:35:12;;;;;;;4.40;1.13;;;23.60;67.40;;;;;;5023150;28;20025;-88
2022/07/05 10:37:38;;;;;;;1.77;0.88;;;23.70;66.60;;;;;;5028967;28;20092;-88
2022/07/05 10:40:06;;;;;;;0.90;0.60;;;23.80;67.20;;;;;;5018414;28;20030;-88
2022/07/05 10:42:41;;;;;;;0.98;0.60;;;23.90;65.60;;;;;;5031207;28;20030;-89
2022/07/05 10:45:30;;;;;;;0.77;0.50;;;24.00;63.90;;;;;;5027502;28;20018;-88
2022/07/05 10:48:15;;;;;;;2.90;0.50;;;24.00;64.60;;;;;;5030322;28;20493;-88
2022/07/05 10:50:55;;;;;;;1.83;0.50;;;23.90;65.70;;;;;;5027219;28;20463;-88
2022/07/05 10:53:32;;;;;;;2.70;0.60;;;23.80;68.20;;;;;;5025795;28;20125;-88
2022/07/05 10:56:04;;;;;;;3.03;0.60;;;23.80;67.80;;;;;;5018422;28;20474;-88
2022/07/05 10:58:32;;;;;;;;;;;23.80;66.90;;;;;;5017815;28;20036;-90
2022/07/05 11:01:23;;;;;;;1.42;0.60;;;23.90;65.40;;;;;;5028823;28;19906;-88
2022/07/05 11:04:01;;;;;;;5.15;0.50;;;24.10;64.00;;;;;;5017541;28;20069;-88
2022/07/05 11:06:53;;;;;;;2.50;0.60;;;24.20;63.60;;;;;;5029637;28;20032;-88
2022/07/05 11:09:20;;;;;;;0.50;0.50;;;24.30;64.70;;;;;;5027338;28;20033;-89
2022/07/05 11:11:52;;;;;;;2.70;0.50;;;24.40;64.70;;;;;;5018026;28;20026;-88
2022/07/05 11:14:21;;;;;;;1.52;0.70;;;24.60;66.20;;;;;;5017524;28;20470;-88
2022/07/05 11:17:08;;;;;;;0.90;0.57;;;24.60;67.10;;;;;;5020734;28;20078;-89
2022/07/05 11:19:34;;;;;;;1.27;0.47;;;24.70;64.00;;;;;;5010645;28;20029;-89
2022/07/05 11:22:05;;;;;;;0.70;0.57;;;24.90;63.70;;;;;;5028215;28;20070;-89
2022/07/05 11:24:35;;;;;;;0.63;0.40;;;24.90;61.70;;;;;;5029784;28;20087;-89
2022/07/05 11:27:03;;;;;;;0.95;0.60;;;24.90;61.50;;;;;;5026705;28;20030;-89
2022/07/05 11:29:51;;;;;;;1.42;0.50;;;24.90;61.10;;;;;;5024730;28;20080;-88
2022/07/05 11:32:36;;;;;;;1.70;0.70;;;25.00;60.30;;;;;;5023805;28;20040;-88
2022/07/05 11:35:17;;;;;;;0.60;0.40;;;25.00;60.70;;;;;;5025947;28;20026;-89
2022/07/05 11:38:00;;;;;;;1.33;0.60;;;25.10;61.70;;;;;;5028499;28;20033;-88
2022/07/05 11:40:29;;;;;;;1.75;0.60;;;25.20;60.80;;;;;;5029657;28;20033;-89
2022/07/05 11:42:55;;;;;;;1.48;0.50;;;25.30;61.00;;;;;;5025692;28;20037;-89
2022/07/05 11:45:20;;;;;;;1.88;0.60;;;25.50;59.20;;;;;;5030082;28;20375;-88
2022/07/05 11:47:46;;;;;;;2.63;0.60;;;25.60;58.90;;;;;;5016942;28;20116;-88
2022/07/05 11:50:12;;;;;;;1.25;0.70;;;25.70;57.80;;;;;;5017454;28;20033;-89
2022/07/05 11:52:39;;;;;;;2.15;0.60;;;25.70;58.20;;;;;;5025735;28;20045;-88
2022/07/05 11:55:11;;;;;;;2.13;0.60;;;25.70;59.00;;;;;;5025012;28;20022;-88
2022/07/05 11:57:47;;;;;;;2.05;0.40;;;25.80;58.90;;;;;;5025753;28;20508;-89
2022/07/05 12:00:13;;;;;;;1.95;0.50;;;25.70;59.20;;;;;;5023320;28;20033;-89
2022/07/05 12:02:46;;;;;;;0.55;0.45;;;25.70;59.90;;;;;;5018855;28;20054;-88
2022/07/05 12:05:15;;;;;;;1.00;0.50;;;25.80;59.20;;;;;;5018139;28;20032;-89
2022/07/05 12:07:51;;;;;;;4.78;0.52;;;25.80;60.20;;;;;;5016835;28;20084;-89
2022/07/05 12:13:09;;;;;;;3.45;0.70;;;25.80;59.70;;;;;;5025472;28;20029;-90
2022/07/05 12:15:36;;;;;;;1.38;0.50;;;25.80;60.90;;;;;;5028008;28;20383;-88
2022/07/05 12:18:06;;;;;;;2.33;0.73;;;25.90;61.60;;;;;;5023280;28;20041;-89
2022/07/05 12:20:35;;;;;;;1.60;0.45;;;25.90;60.90;;;;;;5026665;28;20029;-89
2022/07/05 12:23:01;;;;;;;2.38;0.75;;;26.00;60.00;;;;;;5014371;28;20372;-88
2022/07/05 12:25:29;;;;;;;1.88;0.50;;;25.90;59.00;;;;;;5027188;28;20025;-88
2022/07/05 12:27:57;;;;;;;1.20;0.52;;;25.90;58.40;;;;;;5021256;28;20036;-88
2022/07/05 12:30:24;;;;;;;0.95;0.60;;;25.90;58.50;;;;;;5016616;28;20055;-89
2022/07/05 12:33:07;;;;;;;1.35;0.60;;;25.90;58.00;;;;;;5028261;28;20095;-88
2022/07/05 12:35:44;;;;;;;1.67;0.60;;;26.00;59.00;;;;;;5024841;28;20041;-89
2022/07/05 12:38:20;;;;;;;0.73;0.40;;;26.00;57.80;;;;;;5027175;28;20033;-89
2022/07/05 12:40:49;;;;;;;1.08;0.50;;;26.10;57.60;;;;;;5033779;28;20057;-88
2022/07/05 12:43:15;;;;;;;1.10;0.50;;;26.20;56.70;;;;;;5030470;28;20515;-89
2022/07/05 12:45:43;;;;;;;1.35;0.55;;;26.30;56.80;;;;;;5032626;28;20072;-90
2022/07/05 12:48:11;;;;;;;1.65;0.50;;;26.50;58.80;;;;;;5021693;28;20029;-89
2022/07/05 12:50:48;;;;;;;2.55;0.50;;;26.60;58.60;;;;;;5020586;28;20040;-89
2022/07/05 12:59:15;;;;;;;2.22;0.73;;;26.90;55.70;;;;;;5027857;28;21240;-88
2022/07/05 13:01:42;;;;;;;0.77;0.50;;;26.90;55.70;;;;;;5022214;28;20447;-88
2022/07/05 13:04:12;;;;;;;1.33;0.55;;;26.90;56.10;;;;;;5026641;28;20022;-88
2022/07/05 13:06:45;;;;;;;1.50;0.50;;;26.90;56.30;;;;;;5023376;28;20029;-88